»·PEaware :: N5524A KSMO-L52

N5524A :: KSMO-L52

FLIGHT INFORMATION

Flight Status: Arrived
Operator: Privately registered:
United States
More flights under this callsign
Pilot: Clay H. (5473)
Aircraft: CESSNA 172 SKYHAWK
(C172)
More flights by this aircraft type
Origin: KSMO Santa Monica Mun
United States
Destination: L52 Oceano Co
United States
More flights between these airports :: More routes between these airports
Route: VTU V27 GVO
File this flight plan on PilotEdge
Remarks: XP11
Altitude:
(Current/Filed)
8,500ft
Speed:
(Current/Filed)
120kts
Departed: 20-Nov-17 03:49 PM
Arrived: 20-Nov-17 05:16 PM
Distance/Time
Traveled:
126nm/1:26
Distance/Time
To Go:
Arrived

Flight Plot

Page will automatically refresh every two minutes.

Flight plan parsing failed; only flown route is shown


Map Options




Map Legend


Flown Route
Filed Route
Departure Airport
Arrival Airport
Navaid (VOR, NDB)
Fix

Horizontal Profiles

Position Reports

Time Latitude Longitude Heading Altitude Ground
Speed
20-Nov-17 15:38 34.016687 -118.452130 135 142ft 0kts
20-Nov-17 15:39 34.016687 -118.452130 135 142ft 0kts
20-Nov-17 15:40 34.016687 -118.452130 135 142ft 0kts
20-Nov-17 15:41 34.016687 -118.452130 135 142ft 0kts
20-Nov-17 15:42 34.016687 -118.452130 135 142ft 0kts
20-Nov-17 15:43 34.016687 -118.452130 135 142ft 0kts
20-Nov-17 15:44 34.016687 -118.452130 135 142ft 0kts
20-Nov-17 15:45 34.016687 -118.452130 135 142ft 0kts
20-Nov-17 15:46 34.016687 -118.452130 135 142ft 0kts
20-Nov-17 15:47 34.016687 -118.452130 135 142ft 0kts
20-Nov-17 15:48 34.016687 -118.452130 135 142ft 0kts
20-Nov-17 15:49 34.016804 -118.451270 46 143ft 11kts
20-Nov-17 15:50 34.019957 -118.447541 44 161ft 19kts
20-Nov-17 15:51 34.021121 -118.446192 121 163ft 0kts
20-Nov-17 15:52 34.021011 -118.446035 138 163ft 0kts
20-Nov-17 15:53 34.021011 -118.446035 138 163ft 0kts
20-Nov-17 15:54 34.014153 -118.453630 226 400ft 76kts
20-Nov-17 15:55 34.013998 -118.474647 334 1334ft 90kts
20-Nov-17 15:56 34.025664 -118.499482 287 2225ft 87kts
20-Nov-17 15:57 34.035217 -118.526769 288 3057ft 89kts
20-Nov-17 15:58 34.040843 -118.555292 276 3835ft 89kts
20-Nov-17 15:59 34.046827 -118.584656 279 4582ft 90kts
20-Nov-17 16:00 34.051199 -118.614717 269 5242ft 94kts
20-Nov-17 16:01 34.054060 -118.644725 273 5857ft 95kts
20-Nov-17 16:02 34.057236 -118.675478 269 6445ft 95kts
20-Nov-17 16:03 34.059898 -118.707034 274 7044ft 94kts
20-Nov-17 16:04 34.064044 -118.737699 276 7644ft 91kts
20-Nov-17 16:05 34.068524 -118.766831 276 8240ft 85kts
20-Nov-17 16:06 34.073237 -118.796297 278 8459ft 113kts
20-Nov-17 16:07 34.079594 -118.834459 279 8484ft 115kts
20-Nov-17 16:08 34.085786 -118.871814 279 8484ft 113kts
20-Nov-17 16:09 34.091926 -118.909061 279 8484ft 113kts
20-Nov-17 16:10 34.098032 -118.946204 279 8484ft 113kts
20-Nov-17 16:11 34.104162 -118.983580 279 8484ft 113kts
20-Nov-17 16:12 34.110249 -119.020602 277 8483ft 108kts
20-Nov-17 16:13 34.121548 -119.053477 320 8483ft 114kts
20-Nov-17 16:14 34.146335 -119.074850 319 8484ft 100kts
20-Nov-17 16:15 34.167993 -119.093030 321 8485ft 92kts
20-Nov-17 16:16 34.188837 -119.110334 322 8485ft 92kts
20-Nov-17 16:17 34.209916 -119.127763 322 8484ft 92kts
20-Nov-17 16:18 34.230942 -119.145125 321 8484ft 92kts
20-Nov-17 16:19 34.252057 -119.162561 321 8484ft 92kts
20-Nov-17 16:20 34.273173 -119.180005 321 8484ft 92kts
20-Nov-17 16:21 34.294335 -119.197495 321 8484ft 92kts
20-Nov-17 16:22 34.316760 -119.216071 322 8484ft 105kts
20-Nov-17 16:23 34.328375 -119.245060 267 8484ft 106kts
20-Nov-17 16:24 34.326525 -119.280732 267 8485ft 108kts
20-Nov-17 16:25 34.324166 -119.314713 273 8483ft 99kts
20-Nov-17 16:26 34.321742 -119.348571 265 8484ft 105kts
20-Nov-17 16:27 34.319062 -119.383121 273 8483ft 100kts
20-Nov-17 16:28 34.316534 -119.416361 273 8483ft 99kts
20-Nov-17 16:29 34.313960 -119.449812 272 8501ft 102kts
20-Nov-17 16:30 34.311279 -119.484303 272 8501ft 104kts
20-Nov-17 16:31 34.308558 -119.519240 272 8501ft 104kts
20-Nov-17 16:32 34.305879 -119.553617 272 8500ft 99kts
20-Nov-17 16:33 34.303328 -119.586396 272 8500ft 97kts
20-Nov-17 16:34 34.300793 -119.618995 270 8474ft 97kts
20-Nov-17 16:35 34.298285 -119.650676 269 8473ft 94kts
20-Nov-17 16:36 34.295772 -119.682427 269 8477ft 95kts
20-Nov-17 16:37 34.293235 -119.714392 269 8477ft 95kts
20-Nov-17 16:38 34.290688 -119.746380 269 8477ft 95kts
20-Nov-17 16:39 34.288127 -119.778422 269 8477ft 95kts
20-Nov-17 16:40 34.285563 -119.810410 269 8476ft 95kts
20-Nov-17 16:41 34.282989 -119.842431 269 8476ft 95kts
20-Nov-17 16:42 34.290195 -119.870104 314 8476ft 95kts
20-Nov-17 16:43 34.310861 -119.890364 316 8476ft 95kts
20-Nov-17 16:44 34.331927 -119.909991 316 8476ft 95kts
20-Nov-17 16:45 34.353212 -119.929460 316 8476ft 95kts
20-Nov-17 16:46 34.374020 -119.948380 316 8476ft 96kts
20-Nov-17 16:47 34.395366 -119.967753 316 8476ft 96kts
20-Nov-17 16:48 34.416656 -119.987072 316 8475ft 96kts
20-Nov-17 16:49 34.437639 -120.006112 318 8533ft 91kts
20-Nov-17 16:50 34.457615 -120.024280 319 8583ft 92kts
20-Nov-17 16:51 34.478202 -120.042979 319 8583ft 93kts
20-Nov-17 16:52 34.497366 -120.060398 319 8583ft 93kts
20-Nov-17 16:53 34.518746 -120.079882 319 8584ft 104kts
20-Nov-17 16:54 34.542847 -120.101945 319 8583ft 111kts
20-Nov-17 16:55 34.567559 -120.124749 319 8583ft 111kts
20-Nov-17 16:56 34.591778 -120.147087 318 8582ft 101kts
20-Nov-17 16:57 34.613179 -120.166909 318 8582ft 94kts
20-Nov-17 16:58 34.633821 -120.186054 318 8582ft 93kts
20-Nov-17 16:59 34.651045 -120.202043 319 8580ft 98kts
20-Nov-17 17:00 34.674403 -120.223707 319 8583ft 110kts
20-Nov-17 17:01 34.703039 -120.250238 319 8583ft 111kts
20-Nov-17 17:02 34.723695 -120.269369 319 8583ft 112kts
20-Nov-17 17:03 34.748222 -120.292088 318 8582ft 106kts
20-Nov-17 17:04 34.770714 -120.313035 318 8581ft 99kts
20-Nov-17 17:05 34.797146 -120.337652 320 8395ft 115kts
20-Nov-17 17:06 34.819601 -120.358481 321 7815ft 123kts
20-Nov-17 17:07 34.847052 -120.384031 321 7104ft 123kts
20-Nov-17 17:08 34.873954 -120.409112 321 6398ft 120kts
20-Nov-17 17:09 34.900191 -120.433600 321 5692ft 117kts
20-Nov-17 17:10 34.925606 -120.457340 321 4982ft 113kts
20-Nov-17 17:11 34.949825 -120.479988 320 4273ft 108kts
20-Nov-17 17:12 34.972277 -120.504773 315 3588ft 106kts
20-Nov-17 17:13 34.991771 -120.529320 311 3037ft 101kts
20-Nov-17 17:14 35.007945 -120.556572 299 2541ft 95kts
20-Nov-17 17:15 35.018870 -120.586817 292 2014ft 100kts
20-Nov-17 17:16 35.028949 -120.618499 296 1495ft 99kts
20-Nov-17 17:17 35.048198 -120.639358 344 1089ft 100kts
20-Nov-17 17:18 35.077343 -120.643833 344 988ft 110kts
20-Nov-17 17:19 35.087567 -120.620240 119 908ft 88kts
20-Nov-17 17:20 35.094435 -120.609416 307 302ft 48kts
20-Nov-17 17:21 35.101238 -120.621811 302 18ft 23kts
20-Nov-17 17:22 35.102313 -120.622655 214 18ft 0kts
20-Nov-17 17:23 35.102313 -120.622655 214 18ft 0kts
20-Nov-17 17:24 35.102313 -120.622655 214 18ft 0kts
20-Nov-17 17:25 35.102313 -120.622655 214 18ft 0kts

Navigation Log

Ident Type
Flight plan parsing failed, navigation log unavailable